IYE185 OYSN-OJAI
Flight info
| Callsign | IYE185 |
|---|---|
| Flight time | 0h 54m |
| Altitude | 40000 |
| Route | IMSIL M559 LABNI M999 JDW L677 WEJ M449 MUNRA |
| Aircraft | A333/H-SDE3GHIJ2J3J5M1RVWXY/LB2D1 |
Departure
| Time | 2026-05-09 13:44 |
|---|---|
| Airport | Sanaa International Airport (OYSN) |
Arrival
| Time | 2026-05-09 14:38 |
|---|---|
| Airport | Queen Alia International Airport (OJAI) |
| Time | Latitude | Longitude | Altitude | Speed | Heading |
|---|---|---|---|---|---|
| 2026-05-09 13:42 | 15.46180 | 44.21993 | 7225 ft | 15 kts | 295° |
| 2026-05-09 13:43 | 15.46218 | 44.21972 | 7223 ft | 4 kts | 5° |
| 2026-05-09 13:43 | 15.46372 | 44.21985 | 7221 ft | 50 kts | 3° |
| 2026-05-09 13:43 | 15.46914 | 44.21983 | 7212 ft | 105 kts | 359° |
| 2026-05-09 13:43 | 15.47826 | 44.21978 | 7194 ft | 156 kts | 359° |
| 2026-05-09 13:44 | 15.49011 | 44.21973 | 7551 ft | 174 kts | 2° |
| 2026-05-09 13:44 | 15.50223 | 44.21966 | 8343 ft | 171 kts | 1° |
| 2026-05-09 13:44 | 15.51421 | 44.21951 | 8929 ft | 178 kts | 1° |
| 2026-05-09 13:44 | 15.52739 | 44.21938 | 9237 ft | 202 kts | 1° |
| 2026-05-09 13:45 | 15.54255 | 44.21931 | 9434 ft | 233 kts | 1° |
| 2026-05-09 13:45 | 15.55950 | 44.21916 | 9662 ft | 258 kts | 0° |
| 2026-05-09 13:45 | 15.57197 | 44.21901 | 9837 ft | 273 kts | 0° |
| 2026-05-09 13:45 | 15.59824 | 44.21873 | 10379 ft | 295 kts | 0° |
| 2026-05-09 13:46 | 15.61940 | 44.21852 | 10672 ft | 314 kts | 0° |
| 2026-05-09 13:46 | 15.64187 | 44.21833 | 10983 ft | 332 kts | 360° |
| 2026-05-09 13:46 | 15.66508 | 44.21548 | 11587 ft | 341 kts | 345° |
| 2026-05-09 13:46 | 15.68284 | 44.20753 | 12155 ft | 347 kts | 329° |
| 2026-05-09 13:47 | 15.71260 | 44.16770 | 13668 ft | 359 kts | 297° |
| 2026-05-09 13:47 | 15.77947 | 44.03653 | 17772 ft | 371 kts | 298° |
| 2026-05-09 13:47 | 15.88060 | 43.84133 | 22348 ft | 395 kts | 298° |
| 2026-05-09 13:47 | 15.98496 | 43.63105 | 25826 ft | 424 kts | 291° |
| 2026-05-09 13:48 | 16.02242 | 43.49512 | 27356 ft | 444 kts | 287° |
| 2026-05-09 13:48 | 16.07283 | 43.34125 | 29044 ft | 458 kts | 287° |
| 2026-05-09 13:48 | 16.15563 | 43.08604 | 31664 ft | 472 kts | 286° |
| 2026-05-09 13:48 | 16.20682 | 42.92703 | 33461 ft | 472 kts | 284° |
| 2026-05-09 13:49 | 16.24887 | 42.79736 | 35151 ft | 464 kts | 286° |
| 2026-05-09 13:49 | 16.33193 | 42.69879 | 36625 ft | 476 kts | 327° |
| 2026-05-09 13:49 | 16.40010 | 42.66626 | 37171 ft | 480 kts | 331° |
| 2026-05-09 13:49 | 16.46100 | 42.63782 | 37737 ft | 478 kts | 331° |
| 2026-05-09 13:50 | 16.52162 | 42.60969 | 38340 ft | 475 kts | 331° |
| 2026-05-09 13:50 | 16.58187 | 42.58173 | 38828 ft | 473 kts | 331° |
| 2026-05-09 13:50 | 16.64188 | 42.55388 | 39281 ft | 472 kts | 331° |
| 2026-05-09 13:50 | 16.70215 | 42.52585 | 39675 ft | 472 kts | 331° |
| 2026-05-09 13:51 | 16.76239 | 42.49779 | 39804 ft | 476 kts | 331° |
| 2026-05-09 13:51 | 16.82288 | 42.46960 | 39804 ft | 475 kts | 331° |
| 2026-05-09 13:51 | 16.94325 | 42.41352 | 39805 ft | 473 kts | 331° |
| 2026-05-09 13:52 | 17.06300 | 42.35760 | 39826 ft | 474 kts | 331° |
| 2026-05-09 13:52 | 17.18357 | 42.30119 | 39835 ft | 474 kts | 330° |
| 2026-05-09 13:53 | 17.30434 | 42.24464 | 39885 ft | 475 kts | 330° |
| 2026-05-09 13:53 | 17.42507 | 42.18803 | 39935 ft | 475 kts | 330° |
| 2026-05-09 13:54 | 17.54600 | 42.13122 | 39988 ft | 476 kts | 330° |
| 2026-05-09 13:54 | 17.66615 | 42.07471 | 40042 ft | 476 kts | 330° |
| 2026-05-09 13:55 | 17.78708 | 42.01774 | 40088 ft | 477 kts | 330° |
| 2026-05-09 13:55 | 17.90843 | 41.96050 | 40119 ft | 477 kts | 330° |
| 2026-05-09 13:56 | 18.02965 | 41.90324 | 40136 ft | 477 kts | 330° |
| 2026-05-09 13:56 | 18.15086 | 41.84588 | 40148 ft | 477 kts | 330° |
| 2026-05-09 13:57 | 18.27208 | 41.78843 | 40149 ft | 477 kts | 329° |
| 2026-05-09 13:57 | 18.39304 | 41.73101 | 40206 ft | 478 kts | 329° |
| 2026-05-09 13:58 | 18.51349 | 41.67378 | 40178 ft | 476 kts | 329° |
| 2026-05-09 13:58 | 18.63421 | 41.61629 | 40168 ft | 476 kts | 329° |
| 2026-05-09 13:59 | 18.75502 | 41.55868 | 40199 ft | 476 kts | 329° |
| 2026-05-09 13:59 | 18.87579 | 41.50101 | 40194 ft | 476 kts | 329° |
| 2026-05-09 14:00 | 18.95585 | 41.46272 | 40190 ft | 476 kts | 329° |
| 2026-05-09 14:00 | 19.11724 | 41.38542 | 40190 ft | 475 kts | 329° |
| 2026-05-09 14:01 | 19.23772 | 41.32760 | 40176 ft | 475 kts | 329° |
| 2026-05-09 14:01 | 19.35810 | 41.26973 | 40167 ft | 475 kts | 328° |
| 2026-05-09 14:02 | 19.79831 | 41.05735 | 40159 ft | 474 kts | 328° |
| 2026-05-09 14:02 | 20.27977 | 40.82358 | 40137 ft | 472 kts | 328° |
| 2026-05-09 14:03 | 20.75569 | 40.59086 | 40099 ft | 474 kts | 328° |
| 2026-05-09 14:03 | 21.23462 | 40.35512 | 40085 ft | 474 kts | 328° |
| 2026-05-09 14:04 | 21.71418 | 40.11747 | 40098 ft | 474 kts | 328° |
| 2026-05-09 14:04 | 22.19408 | 39.87779 | 40003 ft | 476 kts | 328° |
| 2026-05-09 14:05 | 22.67421 | 39.63617 | 39933 ft | 476 kts | 328° |
| 2026-05-09 14:05 | 23.15551 | 39.39197 | 39874 ft | 478 kts | 327° |
| 2026-05-09 14:06 | 23.63534 | 39.14657 | 39867 ft | 478 kts | 327° |
| 2026-05-09 14:06 | 24.11653 | 38.89837 | 39853 ft | 475 kts | 328° |
| 2026-05-09 14:07 | 24.59179 | 38.65132 | 39803 ft | 469 kts | 329° |
| 2026-05-09 14:07 | 25.06258 | 38.40467 | 39794 ft | 466 kts | 329° |
| 2026-05-09 14:08 | 25.52549 | 38.15987 | 39861 ft | 460 kts | 329° |
| 2026-05-09 14:08 | 25.98519 | 37.91476 | 39859 ft | 456 kts | 329° |
| 2026-05-09 14:09 | 26.44122 | 37.66938 | 39905 ft | 454 kts | 329° |
| 2026-05-09 14:09 | 26.89518 | 37.42311 | 39899 ft | 450 kts | 329° |
| 2026-05-09 14:10 | 27.56189 | 37.05727 | 39883 ft | 444 kts | 329° |
| 2026-05-09 14:11 | 27.96457 | 36.83392 | 39904 ft | 441 kts | 329° |
| 2026-05-09 14:11 | 28.24285 | 36.67872 | 39904 ft | 438 kts | 328° |
| 2026-05-09 14:12 | 28.40662 | 36.60247 | 39913 ft | 448 kts | 344° |
| 2026-05-09 14:12 | 28.53034 | 36.58026 | 39914 ft | 450 kts | 346° |
| 2026-05-09 14:13 | 28.65411 | 36.55840 | 39918 ft | 450 kts | 345° |
| 2026-05-09 14:15 | 29.14956 | 36.46909 | 39918 ft | 452 kts | 345° |
| 2026-05-09 14:15 | 29.27407 | 36.44658 | 39918 ft | 453 kts | 345° |
| 2026-05-09 14:16 | 29.39863 | 36.42400 | 39917 ft | 453 kts | 344° |
| 2026-05-09 14:16 | 29.52328 | 36.40144 | 39925 ft | 453 kts | 344° |
| 2026-05-09 14:17 | 29.64750 | 36.37900 | 39926 ft | 454 kts | 344° |
| 2026-05-09 14:17 | 29.77250 | 36.35502 | 39931 ft | 453 kts | 343° |
| 2026-05-09 14:18 | 29.94904 | 36.31838 | 39934 ft | 453 kts | 343° |
| 2026-05-09 14:18 | 30.05920 | 36.29571 | 39650 ft | 451 kts | 342° |
| 2026-05-09 14:18 | 30.09008 | 36.28936 | 39354 ft | 448 kts | 342° |
| 2026-05-09 14:19 | 30.12034 | 36.28314 | 38868 ft | 448 kts | 342° |
| 2026-05-09 14:19 | 30.15108 | 36.27677 | 38319 ft | 449 kts | 342° |
| 2026-05-09 14:19 | 30.18191 | 36.27037 | 37772 ft | 449 kts | 342° |
| 2026-05-09 14:19 | 30.21271 | 36.26412 | 37213 ft | 450 kts | 343° |
| 2026-05-09 14:20 | 30.24358 | 36.25808 | 36637 ft | 450 kts | 343° |
| 2026-05-09 14:20 | 30.27446 | 36.25206 | 36061 ft | 450 kts | 343° |
| 2026-05-09 14:20 | 30.30542 | 36.24601 | 35434 ft | 451 kts | 343° |
| 2026-05-09 14:21 | 30.36760 | 36.23382 | 34099 ft | 455 kts | 344° |
| 2026-05-09 14:21 | 30.39884 | 36.22769 | 33401 ft | 456 kts | 344° |
| 2026-05-09 14:21 | 30.43017 | 36.22153 | 32713 ft | 457 kts | 344° |
| 2026-05-09 14:21 | 30.46171 | 36.21533 | 31986 ft | 459 kts | 344° |
| 2026-05-09 14:22 | 30.49312 | 36.20916 | 31441 ft | 456 kts | 344° |
| 2026-05-09 14:22 | 30.52428 | 36.20306 | 30969 ft | 451 kts | 344° |
| 2026-05-09 14:22 | 30.55511 | 36.19701 | 30472 ft | 447 kts | 344° |
| 2026-05-09 14:22 | 30.58558 | 36.19102 | 29974 ft | 443 kts | 344° |
| 2026-05-09 14:23 | 30.61580 | 36.18506 | 29481 ft | 439 kts | 344° |
| 2026-05-09 14:23 | 30.64580 | 36.17914 | 28984 ft | 435 kts | 344° |
| 2026-05-09 14:23 | 30.67555 | 36.17327 | 28469 ft | 431 kts | 344° |
| 2026-05-09 14:23 | 30.70464 | 36.16752 | 27971 ft | 428 kts | 344° |
| 2026-05-09 14:24 | 30.73390 | 36.16173 | 27464 ft | 425 kts | 344° |
| 2026-05-09 14:24 | 30.76298 | 36.15598 | 27000 ft | 421 kts | 344° |
| 2026-05-09 14:24 | 30.79179 | 36.15027 | 26500 ft | 418 kts | 344° |
| 2026-05-09 14:24 | 30.82048 | 36.14490 | 26100 ft | 418 kts | 348° |
| 2026-05-09 14:25 | 30.84975 | 36.14300 | 25438 ft | 425 kts | 354° |
| 2026-05-09 14:25 | 30.87948 | 36.14326 | 24708 ft | 429 kts | 355° |
| 2026-05-09 14:25 | 30.90931 | 36.14394 | 24086 ft | 427 kts | 355° |
| 2026-05-09 14:25 | 30.93892 | 36.14463 | 23472 ft | 425 kts | 356° |
| 2026-05-09 14:26 | 30.96851 | 36.14527 | 22846 ft | 424 kts | 356° |
| 2026-05-09 14:26 | 30.99756 | 36.14585 | 22234 ft | 422 kts | 356° |
| 2026-05-09 14:26 | 31.02683 | 36.14643 | 21632 ft | 420 kts | 356° |
| 2026-05-09 14:26 | 31.05587 | 36.14698 | 21021 ft | 417 kts | 356° |
| 2026-05-09 14:27 | 31.08497 | 36.14752 | 20408 ft | 414 kts | 357° |
| 2026-05-09 14:27 | 31.11377 | 36.14806 | 19803 ft | 411 kts | 357° |
| 2026-05-09 14:27 | 31.14226 | 36.14868 | 19215 ft | 409 kts | 359° |
| 2026-05-09 14:27 | 31.17035 | 36.15373 | 18601 ft | 411 kts | 13° |
| 2026-05-09 14:28 | 31.19744 | 36.16483 | 17988 ft | 410 kts | 18° |
| 2026-05-09 14:28 | 31.22352 | 36.17698 | 17397 ft | 407 kts | 19° |
| 2026-05-09 14:28 | 31.24965 | 36.18932 | 16813 ft | 403 kts | 19° |
| 2026-05-09 14:28 | 31.27558 | 36.20153 | 16225 ft | 399 kts | 19° |
| 2026-05-09 14:29 | 31.30122 | 36.21354 | 15645 ft | 396 kts | 19° |
| 2026-05-09 14:29 | 31.32673 | 36.22546 | 15071 ft | 393 kts | 20° |
| 2026-05-09 14:29 | 31.35201 | 36.23726 | 14496 ft | 389 kts | 20° |
| 2026-05-09 14:29 | 31.37709 | 36.24896 | 13895 ft | 386 kts | 20° |
| 2026-05-09 14:30 | 31.40196 | 36.26056 | 13308 ft | 383 kts | 20° |
| 2026-05-09 14:30 | 31.42658 | 36.27206 | 12749 ft | 379 kts | 21° |
| 2026-05-09 14:30 | 31.45100 | 36.28344 | 12206 ft | 375 kts | 21° |
| 2026-05-09 14:30 | 31.47506 | 36.29468 | 11806 ft | 367 kts | 21° |
| 2026-05-09 14:31 | 31.49851 | 36.30531 | 11465 ft | 358 kts | 17° |
| 2026-05-09 14:31 | 31.52243 | 36.30873 | 11214 ft | 346 kts | 355° |
| 2026-05-09 14:31 | 31.54577 | 36.30531 | 11065 ft | 332 kts | 349° |
| 2026-05-09 14:31 | 31.56810 | 36.30083 | 10902 ft | 320 kts | 348° |
| 2026-05-09 14:32 | 31.58979 | 36.29639 | 10634 ft | 313 kts | 349° |
| 2026-05-09 14:32 | 31.61124 | 36.29205 | 10202 ft | 312 kts | 349° |
| 2026-05-09 14:32 | 31.62544 | 36.28922 | 9918 ft | 312 kts | 349° |
| 2026-05-09 14:32 | 31.64681 | 36.28500 | 9530 ft | 310 kts | 349° |
| 2026-05-09 14:33 | 31.66806 | 36.28083 | 9136 ft | 309 kts | 349° |
| 2026-05-09 14:33 | 31.68924 | 36.27667 | 8648 ft | 310 kts | 349° |
| 2026-05-09 14:33 | 31.71073 | 36.27246 | 8011 ft | 316 kts | 349° |
| 2026-05-09 14:33 | 31.73258 | 36.26822 | 7416 ft | 319 kts | 349° |
| 2026-05-09 14:34 | 31.75307 | 36.25952 | 6967 ft | 308 kts | 323° |
| 2026-05-09 14:34 | 31.76629 | 36.24118 | 6698 ft | 287 kts | 292° |
| 2026-05-09 14:34 | 31.76943 | 36.21876 | 6169 ft | 277 kts | 261° |
| 2026-05-09 14:34 | 31.76404 | 36.19726 | 5582 ft | 272 kts | 248° |
| 2026-05-09 14:35 | 31.75755 | 36.17670 | 5192 ft | 264 kts | 250° |
| 2026-05-09 14:35 | 31.75314 | 36.15609 | 4883 ft | 254 kts | 259° |
| 2026-05-09 14:35 | 31.75078 | 36.13629 | 4575 ft | 233 kts | 261° |
| 2026-05-09 14:35 | 31.74831 | 36.11840 | 4287 ft | 211 kts | 259° |
| 2026-05-09 14:36 | 31.74582 | 36.10208 | 3996 ft | 194 kts | 259° |
| 2026-05-09 14:36 | 31.74369 | 36.08727 | 3772 ft | 176 kts | 260° |
| 2026-05-09 14:36 | 31.74174 | 36.07365 | 3540 ft | 161 kts | 261° |
| 2026-05-09 14:36 | 31.73997 | 36.06125 | 3332 ft | 146 kts | 260° |
| 2026-05-09 14:37 | 31.73834 | 36.05000 | 3145 ft | 135 kts | 260° |
| 2026-05-09 14:37 | 31.73679 | 36.03924 | 2972 ft | 133 kts | 260° |
| 2026-05-09 14:37 | 31.73524 | 36.02849 | 2786 ft | 133 kts | 260° |
| 2026-05-09 14:37 | 31.73361 | 36.01770 | 2582 ft | 134 kts | 260° |
| 2026-05-09 14:38 | 31.73212 | 36.00690 | 2399 ft | 134 kts | 259° |
| 2026-05-09 14:38 | 31.73062 | 35.99712 | 2380 ft | 102 kts | 261° |
| 2026-05-09 14:38 | 31.72991 | 35.99124 | 2379 ft | 45 kts | 259° |
| 2026-05-09 14:38 | 31.72958 | 35.98897 | 2379 ft | 27 kts | 261° |
| 2026-05-09 14:39 | 31.72922 | 35.98651 | 2377 ft | 35 kts | 260° |
| 2026-05-09 14:39 | 31.72881 | 35.98366 | 2376 ft | 35 kts | 260° |
| 2026-05-09 14:39 | 31.72777 | 35.98191 | 2374 ft | 21 kts | 171° |
| 2026-05-09 14:39 | 31.72640 | 35.98226 | 2375 ft | 19 kts | 155° |
| 2026-05-09 14:40 | 31.72601 | 35.98357 | 2375 ft | 18 kts | 86° |
| 2026-05-09 14:40 | 31.72619 | 35.98475 | 2376 ft | 13 kts | 80° |
| 2026-05-09 14:40 | 31.72637 | 35.98605 | 2377 ft | 21 kts | 80° |
| 2026-05-09 14:40 | 31.72666 | 35.98801 | 2377 ft | 23 kts | 80° |
| 2026-05-09 14:41 | 31.72592 | 35.98919 | 2377 ft | 18 kts | 163° |
| 2026-05-09 14:41 | 31.72472 | 35.98957 | 2377 ft | 18 kts | 171° |
| 2026-05-09 14:41 | 31.72444 | 35.98961 | 2377 ft | 0 kts | 171° |